Time;durP1;ratioP1;P1;durP2;ratioP2;P2;SDS_P1;SDS_P2;PMS_P1;PMS_P2;Temp;Humidity;BMP_temperature;BMP_pressure;BME280_temperature;BME280_humidity;BME280_pressure;Samples;Min_cycle;Max_cycle;Signal;HPM_P1;HPM_P2
2020/12/01 00:00:46;;;;;;;38.15;20.25;;;1.10;77.00;;;;;;5074695;28;20063;-63
2020/12/01 00:03:12;;;;;;;34.47;17.83;;;1.00;77.00;;;;;;5074529;28;20082;-64
2020/12/01 00:05:37;;;;;;;36.58;19.33;;;1.00;77.00;;;;;;5075987;28;20028;-63
2020/12/01 00:08:03;;;;;;;39.90;19.08;;;1.00;77.20;;;;;;5074639;28;20481;-64
2020/12/01 00:10:33;;;;;;;44.95;21.00;;;0.90;77.40;;;;;;5074403;28;20505;-63
2020/12/01 00:12:59;;;;;;;36.63;18.65;;;0.90;77.70;;;;;;5074343;28;20026;-64
2020/12/01 00:15:25;;;;;;;41.50;20.30;;;0.80;77.80;;;;;;5074553;28;20063;-65
2020/12/01 00:17:50;;;;;;;37.20;20.63;;;0.90;78.10;;;;;;5069973;28;20058;-64
2020/12/01 00:20:19;;;;;;;40.67;19.45;;;0.80;78.10;;;;;;5073097;28;20482;-64
2020/12/01 00:22:45;;;;;;;39.55;20.00;;;0.90;78.20;;;;;;5070539;28;20036;-64
2020/12/01 00:25:11;;;;;;;38.38;19.10;;;0.80;78.20;;;;;;5072125;28;20048;-64
2020/12/01 00:27:37;;;;;;;42.90;19.60;;;0.80;78.30;;;;;;5074395;28;20028;-64
2020/12/01 00:30:25;;;;;;;34.97;18.48;;;0.80;78.40;;;;;;5072417;28;20108;-65
2020/12/01 00:32:51;;;;;;;44.35;19.95;;;0.80;78.50;;;;;;5071480;28;20029;-64
2020/12/01 00:35:29;;;;;;;42.83;22.45;;;0.70;78.50;;;;;;5077003;22;20052;-84
2020/12/01 00:37:55;;;;;;;42.33;21.30;;;0.70;78.90;;;;;;5053788;28;20025;-85
2020/12/01 00:40:21;;;;;;;36.70;17.70;;;0.70;78.80;;;;;;5072912;28;20021;-85
2020/12/01 00:42:47;;;;;;;41.40;20.48;;;0.70;78.80;;;;;;5056319;28;20462;-85
2020/12/01 00:45:13;;;;;;;43.95;19.40;;;0.70;79.00;;;;;;5059909;28;20107;-85
2020/12/01 00:47:39;;;;;;;34.92;16.15;;;0.60;79.10;;;;;;5094549;28;20051;-85
2020/12/01 00:50:07;;;;;;;43.40;20.05;;;0.70;79.10;;;;;;5093551;28;20063;-85
2020/12/01 00:52:33;;;;;;;39.38;19.20;;;0.60;79.30;;;;;;5094660;28;20043;-85
2020/12/01 00:54:58;;;;;;;43.83;20.23;;;0.70;79.40;;;;;;5076588;28;20024;-85
2020/12/01 00:57:24;;;;;;;38.33;18.65;;;0.70;79.50;;;;;;5075413;28;20081;-85
2020/12/01 00:59:49;;;;;;;42.40;19.13;;;0.70;79.50;;;;;;5094385;28;20060;-85
2020/12/01 01:02:15;;;;;;;41.17;19.52;;;0.70;79.60;;;;;;5094245;28;20059;-85
2020/12/01 01:04:40;;;;;;;45.22;20.15;;;0.80;79.80;;;;;;5076559;28;20520;-85
2020/12/01 01:07:06;;;;;;;45.90;21.23;;;0.70;79.80;;;;;;5076043;28;20035;-84
2020/12/01 01:09:32;;;;;;;45.28;19.92;;;0.70;80.10;;;;;;5093700;28;20028;-85
2020/12/01 01:11:57;;;;;;;43.63;20.17;;;0.70;80.00;;;;;;5075353;28;20063;-85
2020/12/01 01:14:23;;;;;;;47.78;20.83;;;0.80;80.20;;;;;;5076425;28;20081;-85
2020/12/01 01:16:48;;;;;;;44.83;21.33;;;0.80;80.40;;;;;;5093946;28;20024;-85
2020/12/01 01:19:15;;;;;;;42.97;19.83;;;0.80;80.50;;;;;;5075585;28;20917;-85
2020/12/01 01:21:46;;;;;;;44.15;20.35;;;0.80;80.60;;;;;;5075774;28;20571;-85
2020/12/01 01:24:15;;;;;;;41.03;19.70;;;0.80;80.60;;;;;;5076176;28;20138;-85
2020/12/01 01:26:45;;;;;;;42.80;20.13;;;0.80;80.60;;;;;;5093436;28;20036;-85
2020/12/01 01:29:10;;;;;;;41.42;18.05;;;0.90;80.90;;;;;;5093611;28;20103;-85
2020/12/01 01:31:36;;;;;;;40.60;19.48;;;0.90;80.90;;;;;;5075690;28;20449;-85
2020/12/01 01:34:01;;;;;;;42.40;22.10;;;0.90;80.80;;;;;;5058420;28;20039;-85
2020/12/01 01:36:32;;;;;;;39.20;17.20;;;1.00;81.10;;;;;;5056145;28;20035;-85
2020/12/01 01:38:57;;;;;;;41.13;19.23;;;1.00;81.00;;;;;;5075879;28;20491;-85
2020/12/01 01:41:23;;;;;;;40.78;17.90;;;1.00;81.20;;;;;;5090281;28;20024;-85
2020/12/01 01:43:49;;;;;;;41.45;18.15;;;1.00;81.10;;;;;;5069573;28;20036;-85
2020/12/01 01:46:38;;;;;;;38.17;18.50;;;1.00;81.20;;;;;;5075399;28;20025;-85
2020/12/01 01:49:10;;;;;;;39.35;18.80;;;1.00;81.40;;;;;;5055920;28;20028;-85
2020/12/01 01:51:37;;;;;;;39.10;19.23;;;1.00;81.30;;;;;;5093888;28;20032;-84
2020/12/01 01:54:04;;;;;;;42.97;19.80;;;1.00;81.30;;;;;;5074684;28;20524;-84
2020/12/01 01:56:37;;;;;;;37.45;18.45;;;1.10;81.30;;;;;;5093769;28;20031;-85
2020/12/01 01:59:04;;;;;;;39.58;18.33;;;1.10;81.40;;;;;;5057065;28;20024;-84
2020/12/01 02:01:30;;;;;;;38.50;17.73;;;1.10;81.30;;;;;;5075109;28;20141;-84
2020/12/01 02:04:09;;;;;;;40.25;17.63;;;1.20;81.40;;;;;;5073570;28;20039;-85
2020/12/01 02:06:54;;;;;;;36.53;17.48;;;1.30;81.50;;;;;;5075019;28;20024;-85
2020/12/01 02:09:38;;;;;;;37.42;17.13;;;1.30;81.40;;;;;;5074624;28;20475;-84
2020/12/01 02:12:06;;;;;;;46.17;19.27;;;1.30;81.30;;;;;;5060499;28;20488;-85
2020/12/01 02:14:36;;;;;;;42.35;19.77;;;1.30;81.10;;;;;;5061273;28;20016;-85
2020/12/01 02:17:35;;;;;;;38.85;18.17;;;1.30;81.10;;;;;;5075428;28;20472;-85
2020/12/01 02:20:13;;;;;;;41.38;17.80;;;1.30;81.10;;;;;;5020348;28;20059;-85
2020/12/01 02:22:49;;;;;;;42.30;17.60;;;1.30;81.10;;;;;;5074033;28;20492;-85
2020/12/01 02:25:17;;;;;;;43.22;18.50;;;1.30;81.20;;;;;;5060979;28;20042;-85
2020/12/01 02:27:50;;;;;;;38.55;17.65;;;1.30;81.20;;;;;;5075021;28;20063;-85
2020/12/01 02:30:16;;;;;;;41.33;18.73;;;1.30;81.30;;;;;;5093124;28;20472;-85
2020/12/01 02:32:42;;;;;;;47.80;19.42;;;1.30;81.30;;;;;;5073053;28;20107;-85
2020/12/01 02:35:11;;;;;;;42.22;18.58;;;1.30;81.30;;;;;;5074370;28;20036;-84
2020/12/01 02:37:39;;;;;;;45.13;19.30;;;1.30;81.30;;;;;;5059154;28;20037;-85
2020/12/01 02:40:10;;;;;;;46.58;20.02;;;1.30;81.30;;;;;;5084607;28;20046;-85
2020/12/01 02:42:36;;;;;;;44.15;18.70;;;1.30;81.40;;;;;;5062866;28;20024;-84
2020/12/01 02:45:04;;;;;;;39.70;17.67;;;1.30;81.40;;;;;;5074613;28;20392;-84
2020/12/01 02:47:30;;;;;;;49.78;19.10;;;1.30;81.50;;;;;;5083138;28;20552;-84
2020/12/01 02:49:56;;;;;;;47.97;18.55;;;1.30;81.40;;;;;;5069095;28;20503;-86
2020/12/01 02:52:23;;;;;;;44.88;18.70;;;1.30;81.50;;;;;;5055771;28;20032;-85
2020/12/01 02:54:50;;;;;;;47.38;19.90;;;1.30;81.60;;;;;;5063653;28;20023;-85
2020/12/01 02:57:16;;;;;;;52.17;21.88;;;1.30;81.70;;;;;;5056979;28;20185;-85
2020/12/01 02:59:42;;;;;;;43.25;18.80;;;1.30;81.80;;;;;;5065114;28;20025;-85
2020/12/01 03:02:07;;;;;;;45.67;20.15;;;1.30;81.80;;;;;;5090830;28;20027;-84
2020/12/01 03:04:33;;;;;;;43.00;18.55;;;1.40;81.90;;;;;;5074441;28;20032;-85
2020/12/01 03:06:59;;;;;;;48.40;20.75;;;1.40;82.00;;;;;;5074326;28;20456;-85
2020/12/01 03:09:24;;;;;;;47.08;20.58;;;1.40;82.00;;;;;;5073212;28;20115;-85
2020/12/01 03:11:50;;;;;;;46.00;18.02;;;1.40;82.00;;;;;;5082705;28;20024;-84
2020/12/01 03:14:16;;;;;;;49.35;21.20;;;1.40;82.00;;;;;;5074403;28;20028;-85
2020/12/01 03:16:42;;;;;;;40.28;17.65;;;1.40;82.10;;;;;;5091761;28;20100;-85
2020/12/01 03:19:08;;;;;;;53.15;19.65;;;1.40;82.10;;;;;;5092311;28;20036;-84
2020/12/01 03:21:33;;;;;;;50.67;20.60;;;1.40;82.10;;;;;;5071014;28;20017;-85
2020/12/01 03:23:59;;;;;;;52.78;19.85;;;1.40;82.30;;;;;;5058030;28;20035;-85
2020/12/01 03:26:24;;;;;;;49.42;20.38;;;1.40;82.30;;;;;;5091509;28;20481;-85
2020/12/01 03:28:50;;;;;;;44.40;17.80;;;1.50;82.40;;;;;;5074850;28;20039;-85
2020/12/01 03:31:20;;;;;;;44.58;18.80;;;1.50;82.30;;;;;;5072237;28;20024;-85
2020/12/01 03:33:46;;;;;;;46.80;19.63;;;1.50;82.50;;;;;;5093878;28;20140;-85
2020/12/01 03:36:12;;;;;;;46.72;18.58;;;1.50;82.50;;;;;;5058007;28;20507;-85
2020/12/01 03:38:38;;;;;;;48.70;19.77;;;1.50;82.60;;;;;;5078264;28;20044;-85
2020/12/01 03:41:04;;;;;;;46.38;18.13;;;1.50;82.60;;;;;;5077705;28;20053;-85
2020/12/01 03:43:30;;;;;;;47.20;18.75;;;1.50;82.60;;;;;;5078446;28;20417;-85
2020/12/01 03:45:56;;;;;;;51.00;20.77;;;1.60;82.70;;;;;;5073675;28;20031;-85
2020/12/01 03:48:21;;;;;;;52.78;18.80;;;1.50;82.70;;;;;;5077943;28;20130;-85
2020/12/01 03:50:47;;;;;;;49.30;19.17;;;1.60;82.70;;;;;;5096441;28;20028;-85
2020/12/01 03:53:12;;;;;;;48.85;18.77;;;1.60;82.70;;;;;;5096508;28;20548;-85
2020/12/01 03:55:38;;;;;;;53.30;19.77;;;1.60;82.80;;;;;;5090786;28;20486;-85
2020/12/01 03:58:03;;;;;;;50.85;17.80;;;1.60;82.90;;;;;;5077743;28;20085;-85
2020/12/01 04:00:30;;;;;;;45.97;18.30;;;1.60;82.80;;;;;;5072798;28;20029;-85
2020/12/01 04:02:56;;;;;;;47.97;18.35;;;1.70;83.00;;;;;;5058145;28;20025;-85
2020/12/01 04:05:24;;;;;;;48.25;18.42;;;1.70;83.00;;;;;;5087435;28;20051;-85
2020/12/01 04:07:53;;;;;;;51.58;19.20;;;1.70;83.00;;;;;;5077731;28;20451;-85
2020/12/01 04:10:22;;;;;;;49.28;18.13;;;1.70;83.00;;;;;;5077341;28;20040;-85
2020/12/01 04:12:47;;;;;;;49.25;17.50;;;1.70;83.00;;;;;;5077425;28;20036;-85
2020/12/01 04:15:15;;;;;;;45.15;17.60;;;1.70;83.10;;;;;;5076950;28;20028;-85
2020/12/01 04:17:40;;;;;;;42.95;17.88;;;1.70;83.20;;;;;;5076097;28;20047;-85
2020/12/01 04:20:06;;;;;;;49.72;18.10;;;1.80;83.20;;;;;;5095983;28;20067;-86
2020/12/01 04:22:33;;;;;;;46.22;16.95;;;1.80;83.10;;;;;;5077166;28;20020;-86
2020/12/01 04:24:58;;;;;;;45.70;17.35;;;1.80;83.10;;;;;;5077023;28;20028;-84
2020/12/01 04:27:24;;;;;;;44.58;15.70;;;1.80;83.10;;;;;;5077671;28;20020;-85
2020/12/01 04:29:50;;;;;;;55.00;17.30;;;1.90;83.10;;;;;;5089065;28;20036;-85
2020/12/01 04:32:15;;;;;;;48.35;16.77;;;1.90;83.10;;;;;;5095434;28;20024;-85
2020/12/01 04:34:41;;;;;;;42.30;16.40;;;1.90;83.00;;;;;;5095820;28;20052;-85
2020/12/01 04:37:07;;;;;;;52.63;17.35;;;1.90;83.00;;;;;;5090196;28;20031;-85
2020/12/01 04:39:33;;;;;;;47.97;17.33;;;2.00;83.10;;;;;;5075160;28;20028;-86
2020/12/01 04:42:01;;;;;;;46.22;16.70;;;2.00;83.10;;;;;;5073187;28;20070;-84
2020/12/01 04:44:33;;;;;;;46.70;15.70;;;2.00;83.10;;;;;;5081191;28;20498;-85
2020/12/01 04:47:00;;;;;;;;;;;2.00;83.00;;;;;;5067384;28;20020;-85
2020/12/01 04:49:33;;;;;;;42.42;14.48;;;2.00;82.70;;;;;;5057799;28;19953;-84
2020/12/01 04:52:20;;;;;;;42.85;16.05;;;2.00;82.80;;;;;;5095962;28;20034;-85
2020/12/01 04:55:15;;;;;;;50.63;15.77;;;2.00;82.90;;;;;;5077240;28;20016;-84
2020/12/01 04:57:59;;;;;;;46.47;16.02;;;1.90;82.90;;;;;;5070129;28;20424;-85
2020/12/01 05:00:53;;;;;;;37.35;14.60;;;2.00;83.10;;;;;;5076051;28;20034;-85
2020/12/01 05:03:28;;;;;;;45.45;16.02;;;1.90;83.10;;;;;;5092432;28;20052;-85
2020/12/01 05:09:15;;;;;;;40.75;15.20;;;1.90;83.10;;;;;;5059329;28;20395;-84
2020/12/01 05:11:58;;;;;;;46.13;15.45;;;1.90;83.20;;;;;;5066520;28;20040;-89
2020/12/01 05:14:33;;;;;;;48.13;15.02;;;1.90;83.30;;;;;;5074948;28;20483;-85
2020/12/01 05:17:36;;;;;;;44.00;14.43;;;1.90;83.30;;;;;;5065080;28;20111;-85
2020/12/01 05:20:05;;;;;;;45.38;13.68;;;1.90;83.30;;;;;;5055465;28;20037;-85
2020/12/01 05:22:31;;;;;;;41.08;13.48;;;2.00;83.30;;;;;;5056553;28;20029;-85
2020/12/01 05:24:57;;;;;;;37.33;13.07;;;2.00;83.30;;;;;;5093121;28;20054;-85
2020/12/01 05:27:34;;;;;;;40.25;13.48;;;2.00;83.30;;;;;;5094169;28;20062;-85
2020/12/01 05:30:06;;;;;;;39.97;12.63;;;2.00;83.40;;;;;;5075503;28;20407;-85
2020/12/01 05:32:38;;;;;;;30.75;11.32;;;2.00;83.40;;;;;;5094054;28;20016;-85
2020/12/01 05:35:23;;;;;;;56.15;18.50;;;2.00;83.30;;;;;;5076276;28;20024;-84
2020/12/01 05:37:55;;;;;;;44.28;12.45;;;2.00;83.30;;;;;;5064524;28;20078;-85
2020/12/01 05:40:21;;;;;;;37.88;11.20;;;2.00;83.30;;;;;;5055623;28;20024;-85
2020/12/01 05:42:47;;;;;;;33.03;11.00;;;2.00;83.60;;;;;;5069672;28;20401;-85
2020/12/01 05:45:20;;;;;;;33.10;10.52;;;2.00;83.50;;;;;;5076248;28;20447;-84
2020/12/01 05:47:50;;;;;;;33.20;10.98;;;2.00;83.60;;;;;;5075033;28;20437;-85
2020/12/01 05:50:26;;;;;;;36.03;12.85;;;2.00;83.60;;;;;;5076312;28;20024;-85
2020/12/01 05:53:01;;;;;;;28.80;11.18;;;2.00;83.70;;;;;;5076193;28;20119;-85
2020/12/01 05:55:27;;;;;;;26.65;9.65;;;2.00;83.70;;;;;;5093828;28;20057;-85
2020/12/01 05:58:06;;;;;;;27.67;10.00;;;2.00;83.60;;;;;;5074929;28;20041;-85
2020/12/01 06:00:36;;;;;;;28.35;9.48;;;2.00;83.70;;;;;;5075771;28;20047;-85
2020/12/01 06:03:17;;;;;;;28.17;9.40;;;2.10;84.20;;;;;;5075595;28;20038;-85
2020/12/01 06:05:53;;;;;;;25.92;10.68;;;2.10;84.20;;;;;;5075061;28;20027;-85
2020/12/01 06:08:53;;;;;;;27.63;9.55;;;2.10;83.70;;;;;;5075560;28;20028;-85
2020/12/01 06:11:30;;;;;;;32.70;10.02;;;2.00;83.70;;;;;;5070929;28;20492;-84
2020/12/01 06:14:02;;;;;;;23.50;9.57;;;2.10;83.90;;;;;;5075135;28;20024;-85
2020/12/01 06:16:36;;;;;;;22.92;9.32;;;2.10;83.80;;;;;;5076185;28;20572;-86
2020/12/01 06:19:09;;;;;;;27.30;9.63;;;2.10;83.70;;;;;;5074650;28;20085;-84
2020/12/01 06:21:58;;;;;;;23.95;9.10;;;2.10;83.80;;;;;;5057012;28;20398;-84
2020/12/01 06:24:57;;;;;;;20.67;8.57;;;2.10;84.30;;;;;;5063827;28;20024;-85
2020/12/01 06:27:37;;;;;;;25.15;8.95;;;2.10;83.80;;;;;;5071225;28;20020;-85
2020/12/01 06:30:18;;;;;;;27.13;9.10;;;2.10;83.80;;;;;;5069815;28;20380;-85
2020/12/01 06:33:03;;;;;;;26.75;10.23;;;2.10;83.80;;;;;;5075809;28;20024;-85
2020/12/01 06:35:59;;;;;;;21.90;9.15;;;2.10;83.80;;;;;;5054581;28;20028;-85
2020/12/01 06:38:53;;;;;;;23.50;8.73;;;2.10;83.90;;;;;;5058248;28;20102;-85
2020/12/01 06:41:23;;;;;;;24.83;8.75;;;2.10;83.80;;;;;;5075437;28;20028;-85
2020/12/01 06:43:53;;;;;;;24.38;8.23;;;2.10;83.80;;;;;;5074450;28;20024;-84
2020/12/01 06:46:38;;;;;;;28.90;8.68;;;2.10;83.90;;;;;;5075452;28;20450;-85
2020/12/01 06:49:07;;;;;;;22.67;8.05;;;2.20;84.00;;;;;;5074243;28;20020;-84
2020/12/01 06:51:33;;;;;;;23.13;8.23;;;2.10;83.90;;;;;;5074484;28;20104;-85
2020/12/01 06:54:11;;;;;;;24.67;8.18;;;2.10;83.80;;;;;;5093160;28;20075;-85
2020/12/01 06:56:36;;;;;;;22.50;8.57;;;2.10;84.00;;;;;;5073246;28;20516;-85
2020/12/01 06:59:09;;;;;;;27.35;10.98;;;2.20;84.00;;;;;;5070680;28;20024;-84
2020/12/01 07:01:36;;;;;;;33.00;13.43;;;2.20;84.10;;;;;;5093125;28;20114;-85
2020/12/01 07:04:07;;;;;;;34.08;13.52;;;2.20;84.00;;;;;;5075162;28;20043;-85
2020/12/01 07:06:58;;;;;;;29.25;12.93;;;2.20;84.00;;;;;;5075385;28;20050;-85
2020/12/01 07:09:42;;;;;;;31.25;13.52;;;2.20;84.10;;;;;;5074447;28;20024;-85
2020/12/01 07:12:07;;;;;;;25.63;10.75;;;2.20;84.10;;;;;;5075211;28;20131;-85
2020/12/01 07:14:45;;;;;;;28.52;10.18;;;2.20;84.10;;;;;;5072635;28;20112;-85
2020/12/01 07:17:38;;;;;;;24.42;9.35;;;2.20;84.10;;;;;;5076319;28;20070;-85
2020/12/01 07:20:30;;;;;;;22.63;7.95;;;2.20;84.00;;;;;;5055717;28;20017;-85
2020/12/01 07:23:01;;;;;;;23.38;8.05;;;2.20;84.00;;;;;;5075089;28;20039;-84
2020/12/01 07:25:53;;;;;;;20.77;8.10;;;2.20;83.90;;;;;;5068081;28;20123;-85
2020/12/01 07:28:20;;;;;;;20.48;7.75;;;2.20;84.00;;;;;;5075583;28;20020;-85
2020/12/01 07:30:55;;;;;;;26.45;8.60;;;2.30;83.90;;;;;;5062891;28;20485;-85
2020/12/01 07:33:29;;;;;;;20.05;7.72;;;2.30;84.00;;;;;;5054386;28;20037;-86
2020/12/01 07:36:27;;;;;;;25.60;9.13;;;2.30;84.00;;;;;;5059463;28;20040;-85
2020/12/01 07:39:36;;;;;;;25.85;9.35;;;2.30;83.90;;;;;;5077189;28;20348;-85
2020/12/01 07:42:04;;;;;;;25.50;8.68;;;2.40;83.90;;;;;;5032640;28;20028;-86
2020/12/01 07:44:38;;;;;;;25.50;9.75;;;2.30;83.80;;;;;;5074860;28;20388;-85
2020/12/01 07:47:21;;;;;;;25.92;10.15;;;2.30;84.00;;;;;;5092729;28;20027;-85
2020/12/01 07:49:58;;;;;;;27.20;8.60;;;2.30;84.20;;;;;;5092112;28;20027;-86
2020/12/01 07:52:46;;;;;;;24.88;9.23;;;2.30;84.20;;;;;;5075360;28;20044;-86
2020/12/01 07:55:47;;;;;;;24.23;8.95;;;2.30;84.20;;;;;;5073499;28;20073;-84
2020/12/01 07:58:21;;;;;;;28.48;10.52;;;2.30;84.20;;;;;;5092570;28;20020;-85
2020/12/01 08:00:52;;;;;;;33.53;11.98;;;2.30;84.20;;;;;;5073722;28;20074;-84
2020/12/01 08:03:33;;;;;;;41.40;14.25;;;2.30;84.20;;;;;;5074105;28;20088;-84
2020/12/01 08:06:12;;;;;;;33.47;11.48;;;2.30;84.40;;;;;;5091897;28;20020;-84
2020/12/01 08:08:41;;;;;;;29.42;11.73;;;2.30;84.40;;;;;;5068991;28;20118;-84
2020/12/01 08:11:10;;;;;;;27.98;11.68;;;2.30;84.40;;;;;;5092129;28;20051;-84
2020/12/01 08:13:37;;;;;;;36.72;11.75;;;2.30;84.40;;;;;;5072474;28;20036;-85
2020/12/01 08:16:19;;;;;;;31.42;12.35;;;2.30;84.40;;;;;;5077267;28;20028;-85
2020/12/01 08:18:47;;;;;;;33.70;12.57;;;2.30;84.60;;;;;;5091630;28;20051;-84
2020/12/01 08:21:17;;;;;;;35.50;13.02;;;2.30;84.50;;;;;;5090425;28;20274;-84
2020/12/01 08:23:47;;;;;;;40.92;15.10;;;2.40;84.50;;;;;;5077697;28;20127;-86
2020/12/01 08:26:26;;;;;;;37.20;11.65;;;2.40;84.60;;;;;;5076977;28;20024;-84
2020/12/01 08:29:13;;;;;;;32.65;12.50;;;2.30;84.60;;;;;;5062452;28;20054;-84
2020/12/01 08:32:06;;;;;;;32.92;12.70;;;2.40;84.70;;;;;;5115874;28;20118;-86
2020/12/01 08:34:44;;;;;;;31.92;12.50;;;2.30;84.60;;;;;;5087933;28;20028;-84
2020/12/01 08:37:36;;;;;;;30.77;11.60;;;2.40;84.70;;;;;;5056259;28;20484;-84
2020/12/01 08:40:37;;;;;;;33.03;12.37;;;2.40;84.70;;;;;;5072324;28;20070;-84
2020/12/01 08:43:23;;;;;;;34.88;12.60;;;2.40;84.70;;;;;;5057326;28;20036;-84
2020/12/01 08:45:53;;;;;;;34.28;12.57;;;2.30;84.70;;;;;;5077167;28;20352;-84
2020/12/01 08:48:39;;;;;;;40.08;14.48;;;2.40;84.70;;;;;;5093919;28;20036;-84
2020/12/01 08:51:32;;;;;;;37.05;11.50;;;2.40;85.10;;;;;;5076725;28;20120;-84
2020/12/01 08:54:12;;;;;;;35.45;11.80;;;2.30;85.00;;;;;;5077351;28;20047;-85
2020/12/01 08:56:46;;;;;;;35.20;12.70;;;2.30;85.00;;;;;;5077299;28;20548;-84
2020/12/01 08:59:18;;;;;;;37.55;14.00;;;2.30;85.10;;;;;;5071430;28;20633;-84
2020/12/01 09:01:44;;;;;;;35.42;13.05;;;2.30;85.10;;;;;;5066179;28;20441;-84
2020/12/01 09:04:39;;;;;;;33.08;12.52;;;2.30;85.30;;;;;;5075219;28;20031;-85
2020/12/01 09:07:28;;;;;;;29.05;12.23;;;2.30;85.40;;;;;;5068718;28;20039;-84
2020/12/01 09:10:19;;;;;;;33.05;12.93;;;2.30;85.20;;;;;;5062793;28;20036;-84
2020/12/01 09:13:02;;;;;;;29.77;12.50;;;2.30;85.80;;;;;;5077771;28;20024;-84
2020/12/01 09:18:26;;;;;;;26.83;11.25;;;2.40;85.20;;;;;;5075065;28;20020;-86
2020/12/01 09:23:32;;;;;;;21.80;10.95;;;2.50;85.10;;;;;;5092443;28;20078;-84
2020/12/01 09:26:00;;;;;;;23.95;11.60;;;2.40;85.00;;;;;;5063393;28;20025;-85
2020/12/01 09:28:30;;;;;;;30.63;13.32;;;2.40;85.10;;;;;;5056830;28;20396;-84
2020/12/01 09:31:01;;;;;;;28.67;13.30;;;2.40;85.20;;;;;;5064015;28;20122;-84
2020/12/01 09:33:27;;;;;;;26.45;11.85;;;2.50;85.30;;;;;;5076652;28;20150;-84
2020/12/01 09:35:53;;;;;;;23.23;11.80;;;2.50;85.20;;;;;;5093872;28;20031;-84
2020/12/01 09:38:19;;;;;;;22.95;12.18;;;2.50;85.20;;;;;;5094076;28;20036;-84
2020/12/01 09:40:47;;;;;;;25.13;11.85;;;2.50;85.20;;;;;;5075207;28;20115;-85
2020/12/01 09:43:19;;;;;;;24.48;10.98;;;2.40;85.10;;;;;;5094639;28;20031;-84
2020/12/01 09:45:46;;;;;;;24.30;12.45;;;2.50;85.10;;;;;;5070482;28;20032;-84
2020/12/01 09:50:39;;;;;;;23.85;11.43;;;2.40;85.10;;;;;;5074272;28;20078;-85
2020/12/01 09:53:29;;;;;;;27.13;11.13;;;2.50;85.20;;;;;;5056442;28;20037;-84
2020/12/01 10:12:21;;;;;;;18.13;9.25;;;2.50;85.00;;;;;;5092408;28;20035;-84
2020/12/01 10:17:53;;;;;;;17.33;10.02;;;2.60;85.00;;;;;;5088739;28;20411;-84
2020/12/01 10:36:19;;;;;;;20.55;11.18;;;2.70;84.70;;;;;;5092561;28;20495;-84
2020/12/01 10:38:45;;;;;;;24.13;12.30;;;2.70;84.60;;;;;;5064714;28;20101;-84
2020/12/01 10:41:10;;;;;;;18.75;10.02;;;2.70;84.50;;;;;;5067818;28;20024;-84
2020/12/01 10:43:36;;;;;;;17.08;9.20;;;2.80;84.60;;;;;;5053511;28;20028;-84
2020/12/01 10:46:02;;;;;;;15.85;9.13;;;2.80;84.50;;;;;;5069635;28;20114;-84
2020/12/01 10:48:27;;;;;;;15.70;8.60;;;2.90;84.40;;;;;;5077070;28;20062;-84
2020/12/01 10:50:53;;;;;;;16.35;8.68;;;2.90;84.40;;;;;;5073872;28;20395;-85
2020/12/01 10:53:19;;;;;;;16.60;9.05;;;3.00;84.30;;;;;;5074039;28;20032;-84
2020/12/01 10:55:44;;;;;;;15.82;8.85;;;3.00;84.70;;;;;;5074504;28;20073;-85
2020/12/01 10:58:10;;;;;;;16.42;8.80;;;3.00;84.10;;;;;;5073636;28;20020;-84
2020/12/01 11:00:35;;;;;;;15.18;8.85;;;3.00;83.90;;;;;;5092545;28;20023;-89
2020/12/01 11:03:01;;;;;;;17.73;9.23;;;3.00;83.90;;;;;;5069530;28;20032;-89
2020/12/01 11:05:29;;;;;;;16.98;8.98;;;3.10;84.10;;;;;;5074874;28;20085;-91
2020/12/01 11:07:55;;;;;;;16.88;8.77;;;3.10;84.10;;;;;;5071606;28;20036;-91
2020/12/01 11:10:24;;;;;;;12.98;8.70;;;3.10;84.10;;;;;;5075253;28;20054;-91
2020/12/01 11:13:20;;;;;;;14.20;8.70;;;3.10;84.00;;;;;;5082694;28;20052;-93
2020/12/01 11:16:03;;;;;;;15.02;8.15;;;3.20;84.00;;;;;;5088067;28;20032;-95
2020/12/01 11:18:29;;;;;;;17.23;8.73;;;3.20;83.80;;;;;;5078822;23;20575;-64
2020/12/01 11:20:55;;;;;;;13.93;7.63;;;3.30;84.10;;;;;;5079632;28;20141;-63
2020/12/01 11:23:20;;;;;;;12.65;7.68;;;3.30;84.00;;;;;;5066766;28;20029;-64
2020/12/01 11:25:46;;;;;;;13.05;7.63;;;3.30;83.90;;;;;;5072217;28;20508;-63
2020/12/01 11:28:11;;;;;;;12.07;7.53;;;3.30;83.90;;;;;;5071460;28;20515;-64
2020/12/01 11:30:37;;;;;;;27.35;14.57;;;3.30;83.80;;;;;;5071812;28;20033;-63
2020/12/01 11:33:03;;;;;;;17.15;10.25;;;3.30;83.70;;;;;;5052991;28;20029;-64
2020/12/01 11:35:28;;;;;;;14.77;7.50;;;3.40;83.80;;;;;;5053660;28;20075;-63
2020/12/01 11:37:54;;;;;;;14.18;8.55;;;3.40;83.80;;;;;;5071994;28;20025;-63
2020/12/01 11:40:20;;;;;;;13.20;8.20;;;3.40;83.80;;;;;;5071471;28;20049;-65
2020/12/01 11:42:45;;;;;;;16.55;9.57;;;3.40;83.70;;;;;;5064421;28;20041;-66
2020/12/01 11:45:12;;;;;;;15.38;10.35;;;3.40;83.70;;;;;;5051402;28;20124;-66
2020/12/01 11:47:37;;;;;;;15.20;8.63;;;3.40;83.60;;;;;;5069720;28;20032;-65
2020/12/01 11:50:06;;;;;;;15.65;9.77;;;3.40;83.50;;;;;;5071900;28;20040;-64
2020/12/01 11:52:31;;;;;;;16.67;8.45;;;3.30;83.40;;;;;;5070862;28;20068;-64
2020/12/01 11:54:57;;;;;;;14.45;8.95;;;3.30;83.40;;;;;;5073107;28;20421;-63
2020/12/01 11:57:22;;;;;;;33.25;25.45;;;3.30;83.50;;;;;;5075685;28;20029;-64
2020/12/01 11:59:48;;;;;;;21.65;12.88;;;3.30;83.50;;;;;;5075106;28;20141;-63
2020/12/01 12:02:13;;;;;;;15.43;9.35;;;3.30;83.40;;;;;;5075399;28;20036;-64
2020/12/01 12:04:39;;;;;;;18.20;9.27;;;3.20;83.40;;;;;;5075299;28;20055;-64
2020/12/01 12:07:04;;;;;;;19.15;10.65;;;3.20;83.60;;;;;;5075485;28;20021;-64
2020/12/01 12:09:30;;;;;;;39.75;20.63;;;3.20;83.70;;;;;;5074812;28;20036;-64
2020/12/01 12:11:55;;;;;;;16.98;10.25;;;3.20;83.90;;;;;;5074784;28;20040;-64
2020/12/01 12:14:21;;;;;;;18.17;10.32;;;3.20;84.00;;;;;;5075284;28;20158;-64
2020/12/01 12:16:46;;;;;;;15.80;8.90;;;3.20;83.70;;;;;;5074967;28;20098;-63
2020/12/01 12:19:12;;;;;;;14.52;9.70;;;3.30;83.70;;;;;;5074644;28;20028;-64
2020/12/01 12:21:38;;;;;;;14.20;9.35;;;3.20;83.60;;;;;;5075007;28;20525;-64
2020/12/01 12:24:03;;;;;;;18.65;10.18;;;3.20;83.70;;;;;;5075260;28;20036;-63
2020/12/01 12:26:29;;;;;;;13.77;8.55;;;3.20;83.80;;;;;;5074884;28;20169;-65
2020/12/01 12:28:54;;;;;;;15.98;10.70;;;3.20;83.80;;;;;;5074723;28;20489;-64
2020/12/01 12:31:20;;;;;;;14.48;9.25;;;3.30;83.80;;;;;;5074760;28;20099;-64
2020/12/01 12:33:46;;;;;;;18.05;9.60;;;3.30;83.70;;;;;;5074485;28;20048;-63
2020/12/01 12:36:12;;;;;;;14.80;8.68;;;3.30;83.70;;;;;;5074857;28;20028;-63
2020/12/01 12:38:38;;;;;;;14.93;8.77;;;3.30;83.70;;;;;;5073789;28;20115;-63
2020/12/01 12:41:05;;;;;;;13.45;7.80;;;3.30;83.70;;;;;;5074423;28;20029;-65
2020/12/01 12:43:31;;;;;;;14.52;8.23;;;3.30;83.60;;;;;;5074122;28;20027;-64
2020/12/01 12:45:57;;;;;;;16.23;8.30;;;3.30;83.60;;;;;;5074837;28;20095;-63
2020/12/01 12:48:24;;;;;;;16.58;8.75;;;3.30;83.60;;;;;;5074581;28;20533;-64
2020/12/01 12:50:50;;;;;;;15.63;8.50;;;3.30;83.60;;;;;;5035970;28;20117;-63
2020/12/01 12:53:16;;;;;;;12.20;8.27;;;3.40;83.60;;;;;;5054886;28;20108;-64
2020/12/01 12:55:42;;;;;;;15.00;9.38;;;3.30;83.60;;;;;;5073158;28;20538;-64
2020/12/01 12:58:08;;;;;;;17.08;8.40;;;3.30;84.00;;;;;;5074407;28;20115;-64
2020/12/01 13:00:34;;;;;;;15.60;8.82;;;3.30;83.50;;;;;;5074012;28;20029;-63
2020/12/01 13:03:00;;;;;;;16.00;9.00;;;3.30;83.50;;;;;;5074002;28;20043;-64
2020/12/01 13:05:26;;;;;;;13.77;8.40;;;3.20;83.60;;;;;;5074068;28;20025;-63
2020/12/01 13:07:51;;;;;;;14.57;8.63;;;3.20;83.60;;;;;;5073998;28;20041;-63
2020/12/01 13:10:17;;;;;;;14.35;9.05;;;3.20;83.70;;;;;;5055974;28;20115;-63
2020/12/01 13:12:43;;;;;;;19.83;10.68;;;3.20;83.70;;;;;;5073728;28;20037;-63
2020/12/01 13:15:10;;;;;;;16.80;9.52;;;3.20;83.80;;;;;;5074370;28;20358;-64
2020/12/01 13:17:36;;;;;;;24.35;12.43;;;3.20;83.70;;;;;;5073534;28;20028;-64
2020/12/01 13:20:04;;;;;;;18.48;9.38;;;3.20;83.70;;;;;;5073407;28;20021;-63
2020/12/01 13:22:29;;;;;;;24.20;12.52;;;3.20;83.60;;;;;;5074119;28;20485;-63
2020/12/01 13:24:55;;;;;;;21.05;10.82;;;3.20;83.60;;;;;;5068092;28;20043;-63
2020/12/01 13:27:21;;;;;;;17.70;9.18;;;3.20;83.90;;;;;;5073730;28;20060;-64
2020/12/01 13:29:46;;;;;;;17.60;9.60;;;3.20;83.70;;;;;;5055412;28;20029;-64
2020/12/01 13:32:12;;;;;;;17.65;9.48;;;3.10;83.70;;;;;;5073629;28;20028;-64
2020/12/01 13:34:38;;;;;;;19.02;9.15;;;3.10;83.90;;;;;;5073550;28;20027;-64
2020/12/01 13:37:03;;;;;;;16.95;8.40;;;3.10;83.90;;;;;;5055007;28;20028;-64
2020/12/01 13:39:29;;;;;;;14.82;8.50;;;3.10;83.90;;;;;;5073334;28;20016;-64
2020/12/01 13:41:55;;;;;;;16.73;8.65;;;3.10;83.90;;;;;;5073419;28;20033;-64
2020/12/01 13:44:21;;;;;;;16.83;8.20;;;3.10;84.00;;;;;;5073587;28;20031;-63
2020/12/01 13:46:51;;;;;;;16.15;8.82;;;3.10;84.10;;;;;;5055457;28;20036;-64